CHH7340 ZUCK-ZJSY
Flight info
| Callsign | CHH7340 |
|---|---|
| Flight time | 1h 48m |
| Altitude | 35100 |
| Route | VILUS W180 ELBAV W181 DUDIT A599 LBN W159 BHY W70 NYB/K0869S1100 G221 WL |
| Aircraft | B738/M-SDE2E3FGHIRWXY/LB1 |
Departure
| Time | 2026-04-25 00:46 |
|---|---|
| Airport | Chongqing Jiangbei International Airport (ZUCK) |
Arrival
| Time | 2026-04-25 02:34 |
|---|---|
| Airport | Sanya Phoenix International Airport (ZJSY) |
| Time | Latitude | Longitude | Altitude | Speed | Heading |
|---|---|---|---|---|---|
| 2026-04-24 23:44 | 29.73008 | 106.65495 | 1370 ft | 0 kts | 158° |
| 2026-04-25 00:36 | 29.73009 | 106.65494 | 1371 ft | 1 kts | 158° |
| 2026-04-25 00:36 | 29.73023 | 106.65488 | 1371 ft | 2 kts | 158° |
| 2026-04-25 00:36 | 29.73037 | 106.65482 | 1371 ft | 2 kts | 164° |
| 2026-04-25 00:37 | 29.73052 | 106.65481 | 1371 ft | 2 kts | 187° |
| 2026-04-25 00:37 | 29.73066 | 106.65485 | 1370 ft | 2 kts | 207° |
| 2026-04-25 00:37 | 29.73079 | 106.65495 | 1370 ft | 2 kts | 226° |
| 2026-04-25 00:37 | 29.73088 | 106.65509 | 1370 ft | 2 kts | 245° |
| 2026-04-25 00:38 | 29.73090 | 106.65517 | 1370 ft | 1 kts | 255° |
| 2026-04-25 00:38 | 29.73091 | 106.65520 | 1370 ft | 0 kts | 252° |
| 2026-04-25 00:41 | 29.73083 | 106.65493 | 1370 ft | 5 kts | 251° |
| 2026-04-25 00:41 | 29.73068 | 106.65440 | 1370 ft | 8 kts | 252° |
| 2026-04-25 00:41 | 29.73068 | 106.65362 | 1370 ft | 11 kts | 286° |
| 2026-04-25 00:42 | 29.73111 | 106.65280 | 1370 ft | 13 kts | 348° |
| 2026-04-25 00:42 | 29.73212 | 106.65303 | 1370 ft | 14 kts | 17° |
| 2026-04-25 00:42 | 29.73277 | 106.65326 | 1370 ft | 6 kts | 17° |
| 2026-04-25 00:42 | 29.73312 | 106.65327 | 1371 ft | 5 kts | 345° |
| 2026-04-25 00:43 | 29.73338 | 106.65301 | 1370 ft | 5 kts | 291° |
| 2026-04-25 00:43 | 29.73351 | 106.65253 | 1370 ft | 6 kts | 287° |
| 2026-04-25 00:43 | 29.73365 | 106.65199 | 1371 ft | 6 kts | 286° |
| 2026-04-25 00:43 | 29.73369 | 106.65187 | 1370 ft | 2 kts | 286° |
| 2026-04-25 00:44 | 29.73376 | 106.65159 | 1370 ft | 4 kts | 286° |
| 2026-04-25 00:44 | 29.73383 | 106.65120 | 1370 ft | 5 kts | 274° |
| 2026-04-25 00:44 | 29.73366 | 106.65080 | 1370 ft | 6 kts | 221° |
| 2026-04-25 00:44 | 29.73325 | 106.65054 | 1370 ft | 7 kts | 200° |
| 2026-04-25 00:45 | 29.73310 | 106.65049 | 1370 ft | 0 kts | 197° |
| 2026-04-25 00:45 | 29.73161 | 106.64996 | 1370 ft | 56 kts | 197° |
| 2026-04-25 00:45 | 29.72565 | 106.64790 | 1370 ft | 120 kts | 197° |
| 2026-04-25 00:45 | 29.71575 | 106.64449 | 1370 ft | 172 kts | 197° |
| 2026-04-25 00:46 | 29.70347 | 106.64017 | 1784 ft | 185 kts | 198° |
| 2026-04-25 00:46 | 29.69112 | 106.63583 | 2431 ft | 189 kts | 197° |
| 2026-04-25 00:46 | 29.66591 | 106.62707 | 3721 ft | 192 kts | 196° |
| 2026-04-25 00:47 | 29.65294 | 106.62250 | 4302 ft | 196 kts | 196° |
| 2026-04-25 00:47 | 29.63982 | 106.61790 | 4853 ft | 202 kts | 196° |
| 2026-04-25 00:47 | 29.62578 | 106.61301 | 5264 ft | 216 kts | 196° |
| 2026-04-25 00:47 | 29.61109 | 106.60794 | 5685 ft | 228 kts | 196° |
| 2026-04-25 00:48 | 29.59520 | 106.60239 | 5896 ft | 248 kts | 196° |
| 2026-04-25 00:48 | 29.57813 | 106.59631 | 5872 ft | 258 kts | 197° |
| 2026-04-25 00:48 | 29.56042 | 106.59139 | 5891 ft | 268 kts | 183° |
| 2026-04-25 00:48 | 29.54129 | 106.59276 | 5901 ft | 278 kts | 170° |
| 2026-04-25 00:49 | 29.52687 | 106.59574 | 5895 ft | 279 kts | 168° |
| 2026-04-25 00:49 | 29.50754 | 106.59982 | 5888 ft | 279 kts | 170° |
| 2026-04-25 00:49 | 29.48838 | 106.60325 | 5884 ft | 279 kts | 172° |
| 2026-04-25 00:49 | 29.46828 | 106.60630 | 6098 ft | 295 kts | 172° |
| 2026-04-25 00:50 | 29.44843 | 106.60907 | 7189 ft | 287 kts | 172° |
| 2026-04-25 00:50 | 29.42843 | 106.61183 | 7994 ft | 291 kts | 172° |
| 2026-04-25 00:50 | 29.40827 | 106.61465 | 8800 ft | 294 kts | 172° |
| 2026-04-25 00:50 | 29.38766 | 106.61758 | 9511 ft | 300 kts | 172° |
| 2026-04-25 00:51 | 29.36688 | 106.62054 | 10283 ft | 303 kts | 173° |
| 2026-04-25 00:51 | 29.34522 | 106.62360 | 10762 ft | 318 kts | 173° |
| 2026-04-25 00:51 | 29.32267 | 106.62679 | 11219 ft | 332 kts | 173° |
| 2026-04-25 00:51 | 29.29926 | 106.63009 | 11634 ft | 347 kts | 174° |
| 2026-04-25 00:52 | 29.27460 | 106.63355 | 12068 ft | 362 kts | 174° |
| 2026-04-25 00:52 | 29.24915 | 106.63712 | 12443 ft | 377 kts | 174° |
| 2026-04-25 00:52 | 29.22260 | 106.64085 | 12805 ft | 391 kts | 175° |
| 2026-04-25 00:52 | 29.19459 | 106.64478 | 13128 ft | 407 kts | 174° |
| 2026-04-25 00:53 | 29.16596 | 106.64882 | 13594 ft | 417 kts | 175° |
| 2026-04-25 00:53 | 29.13707 | 106.65288 | 14230 ft | 422 kts | 175° |
| 2026-04-25 00:53 | 29.10741 | 106.65709 | 14869 ft | 427 kts | 175° |
| 2026-04-25 00:53 | 29.07773 | 106.66258 | 15492 ft | 433 kts | 170° |
| 2026-04-25 00:54 | 29.04849 | 106.67219 | 16112 ft | 440 kts | 160° |
| 2026-04-25 00:54 | 29.02065 | 106.68705 | 16779 ft | 445 kts | 153° |
| 2026-04-25 00:54 | 28.99348 | 106.70493 | 17383 ft | 450 kts | 149° |
| 2026-04-25 00:54 | 28.96673 | 106.72431 | 18009 ft | 454 kts | 148° |
| 2026-04-25 00:55 | 28.94014 | 106.74438 | 18407 ft | 464 kts | 147° |
| 2026-04-25 00:55 | 28.91318 | 106.76498 | 18915 ft | 470 kts | 147° |
| 2026-04-25 00:55 | 28.88538 | 106.78617 | 19431 ft | 475 kts | 147° |
| 2026-04-25 00:55 | 28.85728 | 106.80733 | 19972 ft | 480 kts | 148° |
| 2026-04-25 00:56 | 28.82886 | 106.82850 | 20441 ft | 486 kts | 148° |
| 2026-04-25 00:56 | 28.80025 | 106.84965 | 20855 ft | 493 kts | 148° |
| 2026-04-25 00:56 | 28.77106 | 106.87111 | 21312 ft | 499 kts | 148° |
| 2026-04-25 00:56 | 28.74159 | 106.89273 | 21819 ft | 503 kts | 148° |
| 2026-04-25 00:57 | 28.71193 | 106.91415 | 22258 ft | 509 kts | 149° |
| 2026-04-25 00:57 | 28.68049 | 106.93378 | 22689 ft | 513 kts | 156° |
| 2026-04-25 00:57 | 28.64725 | 106.94869 | 23152 ft | 515 kts | 165° |
| 2026-04-25 00:57 | 28.61239 | 106.95812 | 23622 ft | 514 kts | 174° |
| 2026-04-25 00:58 | 28.57656 | 106.96191 | 24135 ft | 512 kts | 183° |
| 2026-04-25 00:58 | 28.54049 | 106.96149 | 24556 ft | 513 kts | 187° |
| 2026-04-25 00:58 | 28.50507 | 106.95902 | 25016 ft | 514 kts | 189° |
| 2026-04-25 00:58 | 28.46898 | 106.95597 | 25479 ft | 517 kts | 189° |
| 2026-04-25 00:59 | 28.43294 | 106.95315 | 25884 ft | 521 kts | 188° |
| 2026-04-25 00:59 | 28.39620 | 106.95078 | 26253 ft | 526 kts | 188° |
| 2026-04-25 00:59 | 28.35967 | 106.94899 | 26752 ft | 527 kts | 187° |
| 2026-04-25 00:59 | 28.32288 | 106.94772 | 27437 ft | 524 kts | 187° |
| 2026-04-25 01:00 | 28.28648 | 106.94686 | 28087 ft | 521 kts | 187° |
| 2026-04-25 01:00 | 28.25063 | 106.94629 | 28792 ft | 516 kts | 187° |
| 2026-04-25 01:00 | 28.21432 | 106.94619 | 29382 ft | 514 kts | 185° |
| 2026-04-25 01:00 | 28.17867 | 106.94733 | 29931 ft | 514 kts | 184° |
| 2026-04-25 01:01 | 28.14255 | 106.94937 | 30425 ft | 514 kts | 183° |
| 2026-04-25 01:01 | 28.10659 | 106.95183 | 30892 ft | 514 kts | 182° |
| 2026-04-25 01:01 | 28.07129 | 106.95435 | 31462 ft | 510 kts | 183° |
| 2026-04-25 01:01 | 28.03561 | 106.95688 | 32173 ft | 503 kts | 183° |
| 2026-04-25 01:02 | 28.00096 | 106.95919 | 32837 ft | 496 kts | 184° |
| 2026-04-25 01:02 | 27.96637 | 106.96134 | 33440 ft | 491 kts | 184° |
| 2026-04-25 01:02 | 27.93230 | 106.96330 | 33905 ft | 489 kts | 185° |
| 2026-04-25 01:02 | 27.89853 | 106.96516 | 34436 ft | 486 kts | 185° |
| 2026-04-25 01:03 | 27.86391 | 106.96700 | 34932 ft | 483 kts | 185° |
| 2026-04-25 01:03 | 27.82997 | 106.96878 | 35309 ft | 481 kts | 185° |
| 2026-04-25 01:03 | 27.79599 | 106.97053 | 35306 ft | 479 kts | 185° |
| 2026-04-25 01:04 | 27.72873 | 106.97397 | 35313 ft | 481 kts | 185° |
| 2026-04-25 01:04 | 27.66176 | 106.97746 | 35307 ft | 476 kts | 185° |
| 2026-04-25 01:05 | 27.59517 | 106.98095 | 35298 ft | 474 kts | 185° |
| 2026-04-25 01:05 | 27.52910 | 106.98441 | 35298 ft | 476 kts | 185° |
| 2026-04-25 01:06 | 27.46273 | 106.98786 | 35294 ft | 473 kts | 185° |
| 2026-04-25 01:06 | 27.39614 | 106.99139 | 35294 ft | 474 kts | 185° |
| 2026-04-25 01:07 | 27.32971 | 106.99500 | 35297 ft | 472 kts | 185° |
| 2026-04-25 01:07 | 27.26341 | 106.99865 | 35295 ft | 469 kts | 185° |
| 2026-04-25 01:08 | 27.19721 | 107.00221 | 35301 ft | 473 kts | 185° |
| 2026-04-25 01:08 | 27.13103 | 107.00577 | 35302 ft | 468 kts | 185° |
| 2026-04-25 01:09 | 27.06550 | 107.00932 | 35308 ft | 470 kts | 185° |
| 2026-04-25 01:09 | 27.00001 | 107.01283 | 35311 ft | 465 kts | 185° |
| 2026-04-25 01:10 | 26.93457 | 107.01630 | 35308 ft | 467 kts | 185° |
| 2026-04-25 01:10 | 26.86885 | 107.01962 | 35303 ft | 463 kts | 185° |
| 2026-04-25 01:11 | 26.80338 | 107.02272 | 35302 ft | 468 kts | 185° |
| 2026-04-25 01:11 | 26.73825 | 107.02600 | 35296 ft | 463 kts | 185° |
| 2026-04-25 01:12 | 26.67314 | 107.02942 | 35301 ft | 464 kts | 185° |
| 2026-04-25 01:12 | 26.60791 | 107.03282 | 35302 ft | 466 kts | 185° |
| 2026-04-25 01:13 | 26.54213 | 107.03619 | 35302 ft | 462 kts | 185° |
| 2026-04-25 01:13 | 26.47725 | 107.03948 | 35308 ft | 467 kts | 184° |
| 2026-04-25 01:14 | 26.41212 | 107.04261 | 35316 ft | 465 kts | 185° |
| 2026-04-25 01:14 | 26.34723 | 107.04642 | 35321 ft | 468 kts | 180° |
| 2026-04-25 01:14 | 26.31443 | 107.05357 | 35323 ft | 476 kts | 168° |
| 2026-04-25 01:15 | 26.28348 | 107.06843 | 35330 ft | 489 kts | 155° |
| 2026-04-25 01:15 | 26.25527 | 107.09021 | 35329 ft | 497 kts | 144° |
| 2026-04-25 01:15 | 26.22877 | 107.11637 | 35321 ft | 500 kts | 141° |
| 2026-04-25 01:16 | 26.17882 | 107.17039 | 35309 ft | 498 kts | 139° |
| 2026-04-25 01:16 | 26.12958 | 107.22537 | 35299 ft | 501 kts | 139° |
| 2026-04-25 01:17 | 26.08022 | 107.28028 | 35290 ft | 500 kts | 139° |
| 2026-04-25 01:17 | 26.03044 | 107.33518 | 35283 ft | 498 kts | 139° |
| 2026-04-25 01:18 | 25.98091 | 107.38940 | 35280 ft | 498 kts | 139° |
| 2026-04-25 01:18 | 25.93119 | 107.44364 | 35279 ft | 499 kts | 139° |
| 2026-04-25 01:19 | 25.88154 | 107.49778 | 35276 ft | 497 kts | 139° |
| 2026-04-25 01:19 | 25.83133 | 107.55237 | 35278 ft | 500 kts | 139° |
| 2026-04-25 01:20 | 25.78140 | 107.60663 | 35273 ft | 496 kts | 139° |
| 2026-04-25 01:20 | 25.73143 | 107.66084 | 35269 ft | 499 kts | 139° |
| 2026-04-25 01:21 | 25.68129 | 107.71529 | 35261 ft | 502 kts | 139° |
| 2026-04-25 01:22 | 25.58385 | 107.82202 | 35256 ft | 500 kts | 139° |
| 2026-04-25 01:22 | 25.53400 | 107.87659 | 35251 ft | 499 kts | 139° |
| 2026-04-25 01:23 | 25.48324 | 107.92963 | 35238 ft | 494 kts | 144° |
| 2026-04-25 01:23 | 25.45494 | 107.95106 | 35236 ft | 487 kts | 158° |
| 2026-04-25 01:23 | 25.42346 | 107.96495 | 35242 ft | 481 kts | 171° |
| 2026-04-25 01:24 | 25.35794 | 107.97723 | 35237 ft | 473 kts | 179° |
| 2026-04-25 01:24 | 25.29219 | 107.98494 | 35239 ft | 471 kts | 180° |
| 2026-04-25 01:25 | 25.22671 | 107.99207 | 35243 ft | 473 kts | 180° |
| 2026-04-25 01:25 | 25.16109 | 107.99953 | 35235 ft | 471 kts | 180° |
| 2026-04-25 01:26 | 25.09557 | 108.00725 | 35218 ft | 473 kts | 180° |
| 2026-04-25 01:26 | 25.02940 | 108.01519 | 35211 ft | 474 kts | 179° |
| 2026-04-25 01:27 | 24.96363 | 108.02315 | 35204 ft | 474 kts | 179° |
| 2026-04-25 01:27 | 24.89796 | 108.03111 | 35202 ft | 472 kts | 180° |
| 2026-04-25 01:28 | 24.79841 | 108.04323 | 35207 ft | 471 kts | 179° |
| 2026-04-25 01:28 | 24.73274 | 108.05119 | 35203 ft | 475 kts | 180° |
| 2026-04-25 01:29 | 24.66648 | 108.05923 | 35201 ft | 471 kts | 180° |
| 2026-04-25 01:29 | 24.60051 | 108.06717 | 35207 ft | 475 kts | 180° |
| 2026-04-25 01:30 | 24.53419 | 108.07517 | 35214 ft | 474 kts | 180° |
| 2026-04-25 01:30 | 24.46823 | 108.08317 | 35220 ft | 473 kts | 180° |
| 2026-04-25 01:31 | 24.40240 | 108.09119 | 35210 ft | 474 kts | 180° |
| 2026-04-25 01:31 | 24.33608 | 108.09926 | 35211 ft | 475 kts | 180° |
| 2026-04-25 01:32 | 24.27025 | 108.10727 | 35212 ft | 474 kts | 180° |
| 2026-04-25 01:32 | 24.20433 | 108.11527 | 35200 ft | 474 kts | 180° |
| 2026-04-25 01:33 | 24.13773 | 108.12332 | 35203 ft | 475 kts | 180° |
| 2026-04-25 01:33 | 24.07195 | 108.13130 | 35203 ft | 474 kts | 180° |
| 2026-04-25 01:34 | 24.00588 | 108.13927 | 35204 ft | 473 kts | 180° |
| 2026-04-25 01:34 | 23.94045 | 108.15350 | 35193 ft | 489 kts | 165° |
| 2026-04-25 01:35 | 23.90948 | 108.16985 | 35198 ft | 498 kts | 152° |
| 2026-04-25 01:35 | 23.88106 | 108.19337 | 35197 ft | 507 kts | 140° |
| 2026-04-25 01:35 | 23.83568 | 108.25314 | 35187 ft | 513 kts | 123° |
| 2026-04-25 01:36 | 23.82018 | 108.28887 | 35187 ft | 518 kts | 109° |
| 2026-04-25 01:36 | 23.81188 | 108.32694 | 35203 ft | 518 kts | 97° |
| 2026-04-25 01:36 | 23.80492 | 108.40508 | 35193 ft | 516 kts | 92° |
| 2026-04-25 01:37 | 23.80100 | 108.48399 | 35198 ft | 515 kts | 91° |
| 2026-04-25 01:37 | 23.79743 | 108.56211 | 35198 ft | 516 kts | 91° |
| 2026-04-25 01:38 | 23.79345 | 108.64005 | 35190 ft | 515 kts | 91° |
| 2026-04-25 01:38 | 23.78907 | 108.71881 | 35208 ft | 517 kts | 92° |
| 2026-04-25 01:39 | 23.78447 | 108.79736 | 35198 ft | 515 kts | 92° |
| 2026-04-25 01:39 | 23.77980 | 108.87585 | 35203 ft | 521 kts | 93° |
| 2026-04-25 01:40 | 23.77501 | 108.95504 | 35198 ft | 517 kts | 93° |
| 2026-04-25 01:40 | 23.76144 | 109.03153 | 35177 ft | 516 kts | 113° |
| 2026-04-25 01:41 | 23.74464 | 109.06664 | 35180 ft | 514 kts | 127° |
| 2026-04-25 01:41 | 23.72224 | 109.09669 | 35175 ft | 510 kts | 138° |
| 2026-04-25 01:41 | 23.66765 | 109.14514 | 35174 ft | 495 kts | 156° |
| 2026-04-25 01:42 | 23.63651 | 109.16006 | 35178 ft | 485 kts | 169° |
| 2026-04-25 01:42 | 23.60342 | 109.16843 | 35172 ft | 480 kts | 177° |
| 2026-04-25 01:42 | 23.53728 | 109.17856 | 35172 ft | 473 kts | 180° |
| 2026-04-25 01:43 | 23.47131 | 109.18659 | 35167 ft | 475 kts | 181° |
| 2026-04-25 01:43 | 23.40527 | 109.19458 | 35162 ft | 474 kts | 181° |
| 2026-04-25 01:44 | 23.33952 | 109.20283 | 35169 ft | 473 kts | 181° |
| 2026-04-25 01:44 | 23.27372 | 109.21133 | 35163 ft | 473 kts | 181° |
| 2026-04-25 01:45 | 23.20762 | 109.21993 | 35167 ft | 476 kts | 181° |
| 2026-04-25 01:45 | 23.14189 | 109.22855 | 35179 ft | 476 kts | 181° |
| 2026-04-25 01:46 | 23.07569 | 109.23723 | 35184 ft | 476 kts | 181° |
| 2026-04-25 01:46 | 23.00967 | 109.24586 | 35187 ft | 475 kts | 181° |
| 2026-04-25 01:47 | 22.94314 | 109.25459 | 35181 ft | 472 kts | 181° |
| 2026-04-25 01:47 | 22.87691 | 109.26329 | 35177 ft | 475 kts | 181° |
| 2026-04-25 01:48 | 22.81040 | 109.27195 | 35177 ft | 477 kts | 181° |
| 2026-04-25 01:48 | 22.74447 | 109.28056 | 35166 ft | 476 kts | 181° |
| 2026-04-25 01:49 | 22.67870 | 109.28918 | 35157 ft | 474 kts | 181° |
| 2026-04-25 01:49 | 22.61270 | 109.29787 | 35172 ft | 476 kts | 181° |
| 2026-04-25 01:50 | 22.54680 | 109.30658 | 35171 ft | 475 kts | 182° |
| 2026-04-25 01:50 | 22.48044 | 109.31532 | 35174 ft | 478 kts | 181° |
| 2026-04-25 01:51 | 22.41449 | 109.32402 | 35173 ft | 476 kts | 182° |
| 2026-04-25 01:51 | 22.34829 | 109.33266 | 35167 ft | 479 kts | 182° |
| 2026-04-25 01:52 | 22.28186 | 109.34141 | 35162 ft | 476 kts | 182° |
| 2026-04-25 01:52 | 22.21554 | 109.35008 | 35163 ft | 478 kts | 182° |
| 2026-04-25 01:53 | 22.14896 | 109.35873 | 35149 ft | 476 kts | 182° |
| 2026-04-25 01:53 | 22.08265 | 109.36736 | 35152 ft | 478 kts | 182° |
| 2026-04-25 01:54 | 22.01597 | 109.37597 | 35157 ft | 481 kts | 182° |
| 2026-04-25 01:54 | 21.94954 | 109.38463 | 35151 ft | 477 kts | 182° |
| 2026-04-25 01:55 | 21.88270 | 109.39329 | 35152 ft | 477 kts | 182° |
| 2026-04-25 01:55 | 21.81611 | 109.40194 | 35152 ft | 478 kts | 182° |
| 2026-04-25 01:56 | 21.74981 | 109.41050 | 35150 ft | 478 kts | 182° |
| 2026-04-25 01:56 | 21.68341 | 109.41909 | 35152 ft | 478 kts | 182° |
| 2026-04-25 01:57 | 21.58413 | 109.43755 | 35151 ft | 492 kts | 169° |
| 2026-04-25 01:58 | 21.52140 | 109.46822 | 35150 ft | 505 kts | 159° |
| 2026-04-25 01:58 | 21.45986 | 109.50629 | 35151 ft | 508 kts | 156° |
| 2026-04-25 01:59 | 21.39944 | 109.54538 | 35149 ft | 506 kts | 156° |
| 2026-04-25 01:59 | 21.33821 | 109.58368 | 35145 ft | 505 kts | 159° |
| 2026-04-25 01:59 | 21.30619 | 109.59864 | 35149 ft | 493 kts | 171° |
| 2026-04-25 02:00 | 21.27317 | 109.60782 | 35153 ft | 484 kts | 177° |
| 2026-04-25 02:00 | 21.20674 | 109.61867 | 35146 ft | 475 kts | 182° |
| 2026-04-25 02:01 | 21.14087 | 109.62662 | 35146 ft | 477 kts | 182° |
| 2026-04-25 02:01 | 21.07422 | 109.63484 | 35150 ft | 478 kts | 181° |
| 2026-04-25 02:02 | 21.00791 | 109.64365 | 35150 ft | 479 kts | 181° |
| 2026-04-25 02:02 | 20.94162 | 109.65296 | 35150 ft | 477 kts | 181° |
| 2026-04-25 02:03 | 20.87535 | 109.66247 | 35147 ft | 475 kts | 181° |
| 2026-04-25 02:03 | 20.80920 | 109.67203 | 34760 ft | 469 kts | 181° |
| 2026-04-25 02:03 | 20.77707 | 109.67676 | 34470 ft | 460 kts | 181° |
| 2026-04-25 02:04 | 20.74540 | 109.68142 | 34187 ft | 454 kts | 181° |
| 2026-04-25 02:04 | 20.71429 | 109.68592 | 33907 ft | 458 kts | 181° |
| 2026-04-25 02:04 | 20.68223 | 109.69044 | 33624 ft | 465 kts | 181° |
| 2026-04-25 02:04 | 20.64981 | 109.69499 | 33338 ft | 468 kts | 181° |
| 2026-04-25 02:05 | 20.61712 | 109.69964 | 33045 ft | 468 kts | 181° |
| 2026-04-25 02:05 | 20.58490 | 109.70427 | 32761 ft | 467 kts | 181° |
| 2026-04-25 02:05 | 20.55243 | 109.70907 | 32508 ft | 468 kts | 179° |
| 2026-04-25 02:05 | 20.52018 | 109.71648 | 32255 ft | 477 kts | 171° |
| 2026-04-25 02:06 | 20.48929 | 109.72956 | 32003 ft | 489 kts | 158° |
| 2026-04-25 02:06 | 20.46013 | 109.74927 | 31765 ft | 495 kts | 149° |
| 2026-04-25 02:06 | 20.43259 | 109.77137 | 31510 ft | 498 kts | 146° |
| 2026-04-25 02:06 | 20.40561 | 109.79456 | 31255 ft | 498 kts | 145° |
| 2026-04-25 02:07 | 20.37876 | 109.81838 | 31004 ft | 496 kts | 144° |
| 2026-04-25 02:07 | 20.35245 | 109.84199 | 30746 ft | 495 kts | 144° |
| 2026-04-25 02:07 | 20.32630 | 109.86541 | 30498 ft | 496 kts | 144° |
| 2026-04-25 02:07 | 20.29984 | 109.88895 | 30240 ft | 495 kts | 144° |
| 2026-04-25 02:08 | 20.27295 | 109.91270 | 29983 ft | 495 kts | 144° |
| 2026-04-25 02:08 | 20.24639 | 109.93599 | 29729 ft | 493 kts | 144° |
| 2026-04-25 02:08 | 20.22004 | 109.95896 | 29479 ft | 492 kts | 145° |
| 2026-04-25 02:08 | 20.19340 | 109.98209 | 29221 ft | 492 kts | 145° |
| 2026-04-25 02:09 | 20.16708 | 110.00488 | 28969 ft | 492 kts | 145° |
| 2026-04-25 02:09 | 20.14025 | 110.02808 | 28720 ft | 491 kts | 144° |
| 2026-04-25 02:09 | 20.11380 | 110.05087 | 28475 ft | 490 kts | 146° |
| 2026-04-25 02:09 | 20.08629 | 110.07260 | 28217 ft | 486 kts | 150° |
| 2026-04-25 02:10 | 20.05703 | 110.08965 | 27974 ft | 479 kts | 163° |
| 2026-04-25 02:10 | 20.02473 | 110.09942 | 27730 ft | 470 kts | 175° |
| 2026-04-25 02:10 | 19.99256 | 110.10213 | 27490 ft | 463 kts | 186° |
| 2026-04-25 02:10 | 19.96045 | 110.09974 | 27254 ft | 460 kts | 192° |
| 2026-04-25 02:11 | 19.92883 | 110.09382 | 27004 ft | 454 kts | 199° |
| 2026-04-25 02:11 | 19.89864 | 110.08360 | 26764 ft | 451 kts | 205° |
| 2026-04-25 02:11 | 19.86952 | 110.07082 | 26635 ft | 448 kts | 208° |
| 2026-04-25 02:11 | 19.84135 | 110.05701 | 26631 ft | 450 kts | 210° |
| 2026-04-25 02:12 | 19.81275 | 110.04243 | 26631 ft | 450 kts | 210° |
| 2026-04-25 02:12 | 19.78458 | 110.02801 | 26500 ft | 452 kts | 210° |
| 2026-04-25 02:12 | 19.75620 | 110.01360 | 26256 ft | 450 kts | 210° |
| 2026-04-25 02:12 | 19.72773 | 109.99935 | 26011 ft | 445 kts | 210° |
| 2026-04-25 02:13 | 19.69950 | 109.98538 | 25770 ft | 443 kts | 209° |
| 2026-04-25 02:13 | 19.67168 | 109.97172 | 25533 ft | 443 kts | 209° |
| 2026-04-25 02:13 | 19.64338 | 109.95792 | 25289 ft | 443 kts | 208° |
| 2026-04-25 02:13 | 19.61537 | 109.94434 | 25043 ft | 441 kts | 208° |
| 2026-04-25 02:14 | 19.58720 | 109.93071 | 24801 ft | 439 kts | 208° |
| 2026-04-25 02:14 | 19.55935 | 109.91728 | 24558 ft | 437 kts | 208° |
| 2026-04-25 02:14 | 19.53145 | 109.90385 | 24313 ft | 436 kts | 208° |
| 2026-04-25 02:14 | 19.50397 | 109.89063 | 24071 ft | 434 kts | 208° |
| 2026-04-25 02:15 | 19.47615 | 109.87726 | 23829 ft | 433 kts | 208° |
| 2026-04-25 02:15 | 19.44874 | 109.86410 | 23587 ft | 431 kts | 208° |
| 2026-04-25 02:15 | 19.42109 | 109.85083 | 23346 ft | 430 kts | 208° |
| 2026-04-25 02:15 | 19.39361 | 109.83765 | 23102 ft | 428 kts | 207° |
| 2026-04-25 02:16 | 19.36631 | 109.82457 | 22858 ft | 426 kts | 207° |
| 2026-04-25 02:16 | 19.33939 | 109.81174 | 22615 ft | 424 kts | 207° |
| 2026-04-25 02:16 | 19.31247 | 109.79897 | 22378 ft | 423 kts | 207° |
| 2026-04-25 02:16 | 19.28527 | 109.78610 | 22137 ft | 423 kts | 207° |
| 2026-04-25 02:17 | 19.25834 | 109.77335 | 21897 ft | 423 kts | 207° |
| 2026-04-25 02:17 | 19.23145 | 109.76060 | 21654 ft | 421 kts | 207° |
| 2026-04-25 02:17 | 19.20482 | 109.74785 | 21416 ft | 420 kts | 207° |
| 2026-04-25 02:17 | 19.17805 | 109.73494 | 21177 ft | 420 kts | 207° |
| 2026-04-25 02:18 | 19.15171 | 109.72221 | 20938 ft | 419 kts | 207° |
| 2026-04-25 02:18 | 19.12495 | 109.70927 | 20701 ft | 417 kts | 207° |
| 2026-04-25 02:18 | 19.09868 | 109.69659 | 20463 ft | 416 kts | 207° |
| 2026-04-25 02:18 | 19.07217 | 109.68379 | 20230 ft | 416 kts | 207° |
| 2026-04-25 02:19 | 19.04563 | 109.67099 | 19997 ft | 415 kts | 207° |
| 2026-04-25 02:19 | 19.01906 | 109.65819 | 19758 ft | 415 kts | 207° |
| 2026-04-25 02:19 | 18.99294 | 109.64562 | 19525 ft | 414 kts | 207° |
| 2026-04-25 02:19 | 18.96645 | 109.63287 | 19277 ft | 414 kts | 207° |
| 2026-04-25 02:20 | 18.94050 | 109.62039 | 18809 ft | 411 kts | 207° |
| 2026-04-25 02:20 | 18.91452 | 109.60790 | 18213 ft | 409 kts | 206° |
| 2026-04-25 02:20 | 18.88839 | 109.59533 | 17563 ft | 409 kts | 206° |
| 2026-04-25 02:20 | 18.86242 | 109.58283 | 16906 ft | 409 kts | 206° |
| 2026-04-25 02:21 | 18.83663 | 109.57044 | 16239 ft | 409 kts | 206° |
| 2026-04-25 02:21 | 18.81040 | 109.55784 | 15555 ft | 409 kts | 206° |
| 2026-04-25 02:21 | 18.78471 | 109.54552 | 14896 ft | 408 kts | 205° |
| 2026-04-25 02:21 | 18.75860 | 109.53299 | 14212 ft | 407 kts | 205° |
| 2026-04-25 02:22 | 18.73291 | 109.52068 | 13537 ft | 406 kts | 205° |
| 2026-04-25 02:22 | 18.70695 | 109.50823 | 12826 ft | 403 kts | 205° |
| 2026-04-25 02:22 | 18.68174 | 109.49616 | 12175 ft | 388 kts | 205° |
| 2026-04-25 02:22 | 18.65776 | 109.48467 | 11545 ft | 374 kts | 205° |
| 2026-04-25 02:23 | 18.63439 | 109.47348 | 11042 ft | 358 kts | 205° |
| 2026-04-25 02:23 | 18.61229 | 109.46289 | 10751 ft | 339 kts | 205° |
| 2026-04-25 02:23 | 18.59120 | 109.45277 | 10594 ft | 326 kts | 205° |
| 2026-04-25 02:23 | 18.57100 | 109.44309 | 10430 ft | 315 kts | 205° |
| 2026-04-25 02:24 | 18.55114 | 109.43356 | 10292 ft | 309 kts | 205° |
| 2026-04-25 02:24 | 18.53157 | 109.42417 | 10141 ft | 303 kts | 205° |
| 2026-04-25 02:24 | 18.51255 | 109.41505 | 9807 ft | 300 kts | 205° |
| 2026-04-25 02:24 | 18.49365 | 109.40524 | 9412 ft | 299 kts | 212° |
| 2026-04-25 02:25 | 18.47728 | 109.39178 | 9047 ft | 296 kts | 228° |
| 2026-04-25 02:25 | 18.46406 | 109.37535 | 8678 ft | 294 kts | 234° |
| 2026-04-25 02:25 | 18.45177 | 109.35815 | 8300 ft | 292 kts | 234° |
| 2026-04-25 02:25 | 18.43955 | 109.34113 | 7940 ft | 290 kts | 233° |
| 2026-04-25 02:26 | 18.42700 | 109.32420 | 7580 ft | 289 kts | 232° |
| 2026-04-25 02:26 | 18.41443 | 109.30769 | 7219 ft | 288 kts | 232° |
| 2026-04-25 02:26 | 18.40194 | 109.29148 | 6854 ft | 287 kts | 232° |
| 2026-04-25 02:26 | 18.38997 | 109.27476 | 6493 ft | 285 kts | 239° |
| 2026-04-25 02:27 | 18.38203 | 109.25571 | 6142 ft | 281 kts | 258° |
| 2026-04-25 02:27 | 18.37904 | 109.23542 | 5784 ft | 279 kts | 265° |
| 2026-04-25 02:27 | 18.37739 | 109.21524 | 5542 ft | 273 kts | 266° |
| 2026-04-25 02:27 | 18.37519 | 109.19593 | 5458 ft | 261 kts | 258° |
| 2026-04-25 02:28 | 18.36737 | 109.17910 | 5378 ft | 250 kts | 225° |
| 2026-04-25 02:28 | 18.35300 | 109.16973 | 5197 ft | 244 kts | 195° |
| 2026-04-25 02:28 | 18.33623 | 109.16793 | 4928 ft | 240 kts | 173° |
| 2026-04-25 02:28 | 18.31987 | 109.17041 | 4642 ft | 234 kts | 170° |
| 2026-04-25 02:29 | 18.30392 | 109.17295 | 4391 ft | 224 kts | 168° |
| 2026-04-25 02:29 | 18.28943 | 109.17799 | 4213 ft | 211 kts | 143° |
| 2026-04-25 02:29 | 18.28037 | 109.18893 | 4029 ft | 196 kts | 112° |
| 2026-04-25 02:29 | 18.27723 | 109.20274 | 3637 ft | 193 kts | 90° |
| 2026-04-25 02:30 | 18.27780 | 109.21644 | 3368 ft | 185 kts | 83° |
| 2026-04-25 02:30 | 18.27929 | 109.22980 | 3114 ft | 180 kts | 82° |
| 2026-04-25 02:30 | 18.28086 | 109.24246 | 2913 ft | 170 kts | 81° |
| 2026-04-25 02:30 | 18.28232 | 109.25452 | 2660 ft | 163 kts | 82° |
| 2026-04-25 02:31 | 18.28369 | 109.26613 | 2453 ft | 162 kts | 83° |
| 2026-04-25 02:31 | 18.28521 | 109.27753 | 2224 ft | 155 kts | 81° |
| 2026-04-25 02:31 | 18.28669 | 109.28877 | 2038 ft | 158 kts | 81° |
| 2026-04-25 02:31 | 18.28822 | 109.30020 | 1816 ft | 154 kts | 81° |
| 2026-04-25 02:32 | 18.28976 | 109.31126 | 1625 ft | 156 kts | 81° |
| 2026-04-25 02:32 | 18.29124 | 109.32269 | 1416 ft | 156 kts | 82° |
| 2026-04-25 02:32 | 18.29267 | 109.33395 | 1216 ft | 158 kts | 81° |
| 2026-04-25 02:32 | 18.29421 | 109.34537 | 1014 ft | 156 kts | 81° |
| 2026-04-25 02:33 | 18.29566 | 109.35674 | 810 ft | 157 kts | 83° |
| 2026-04-25 02:33 | 18.29711 | 109.36824 | 620 ft | 157 kts | 82° |
| 2026-04-25 02:33 | 18.29868 | 109.37959 | 423 ft | 157 kts | 83° |
| 2026-04-25 02:33 | 18.30018 | 109.39111 | 192 ft | 160 kts | 84° |
| 2026-04-25 02:34 | 18.30162 | 109.40234 | 78 ft | 129 kts | 81° |
| 2026-04-25 02:34 | 18.30253 | 109.40919 | 88 ft | 63 kts | 83° |
| 2026-04-25 02:34 | 18.30290 | 109.41222 | 93 ft | 28 kts | 84° |
| 2026-04-25 02:34 | 18.30325 | 109.41300 | 95 ft | 7 kts | 26° |
| 2026-04-25 02:35 | 18.30363 | 109.41311 | 96 ft | 7 kts | 359° |
| 2026-04-25 02:35 | 18.30422 | 109.41303 | 98 ft | 6 kts | 352° |
| 2026-04-25 02:35 | 18.30455 | 109.41299 | 99 ft | 5 kts | 353° |
| 2026-04-25 02:35 | 18.30502 | 109.41293 | 101 ft | 8 kts | 352° |
| 2026-04-25 02:36 | 18.30566 | 109.41283 | 104 ft | 10 kts | 352° |
| 2026-04-25 02:36 | 18.30647 | 109.41272 | 107 ft | 13 kts | 352° |
| 2026-04-25 02:36 | 18.30716 | 109.41261 | 109 ft | 9 kts | 352° |
| 2026-04-25 02:36 | 18.30773 | 109.41232 | 109 ft | 10 kts | 306° |
| 2026-04-25 02:37 | 18.30775 | 109.41136 | 104 ft | 14 kts | 261° |
| 2026-04-25 02:37 | 18.30764 | 109.41047 | 102 ft | 10 kts | 262° |
| 2026-04-25 02:37 | 18.30755 | 109.40984 | 102 ft | 7 kts | 262° |
| 2026-04-25 02:37 | 18.30751 | 109.40947 | 102 ft | 3 kts | 262° |
| 2026-04-25 02:38 | 18.30746 | 109.40911 | 103 ft | 3 kts | 262° |
| 2026-04-25 02:38 | 18.30745 | 109.40878 | 104 ft | 4 kts | 288° |
| 2026-04-25 02:38 | 18.30772 | 109.40855 | 105 ft | 5 kts | 342° |
| 2026-04-25 02:38 | 18.30804 | 109.40849 | 106 ft | 1 kts | 350° |
| 2026-04-25 02:39 | 18.30821 | 109.40846 | 107 ft | 2 kts | 351° |
| 2026-04-25 02:39 | 18.30829 | 109.40846 | 107 ft | 0 kts | 352° |
| 2026-04-25 02:39 | 18.30835 | 109.40845 | 107 ft | 0 kts | 352° |
| 2026-04-25 02:39 | 18.30836 | 109.40844 | 107 ft | 0 kts | 352° |